RYR53VV LIEA-LZIB
Flight info
| Callsign | RYR53VV |
|---|---|
| Flight time | 1h 40m |
| Altitude | 36000 |
| Route | MINKA L5 ROMPO DCT GISPA DCT NIKOL DCT GIRDA DCT ADOMO DCT RADLY DCT NIGSI DCT BEGLA DCT KUVEX |
| Aircraft | B738/M-SDE2E3FGHIRWXY/LB1 |
Departure
| Time | 2026-05-06 23:27 |
|---|---|
| Airport | Alghero-Fertilia Airport (LIEA) |
Arrival
| Time | 2026-05-07 01:07 |
|---|---|
| Airport | M. R. Štefánik Airport (LZIB) |
| Time | Latitude | Longitude | Altitude | Speed | Heading |
|---|---|---|---|---|---|
| 2026-05-06 22:58 | 40.63208 | 8.29530 | 88 ft | 0 kts | 114° |
| 2026-05-06 23:20 | 40.63213 | 8.29514 | 92 ft | 4 kts | 107° |
| 2026-05-06 23:20 | 40.63216 | 8.29481 | 93 ft | 4 kts | 70° |
| 2026-05-06 23:20 | 40.63202 | 8.29458 | 94 ft | 2 kts | 25° |
| 2026-05-06 23:21 | 40.63201 | 8.29457 | 94 ft | 2 kts | 24° |
| 2026-05-06 23:23 | 40.63205 | 8.29459 | 91 ft | 4 kts | 24° |
| 2026-05-06 23:23 | 40.63266 | 8.29480 | 91 ft | 11 kts | 356° |
| 2026-05-06 23:23 | 40.63364 | 8.29457 | 92 ft | 15 kts | 349° |
| 2026-05-06 23:24 | 40.63462 | 8.29477 | 93 ft | 14 kts | 26° |
| 2026-05-06 23:24 | 40.63550 | 8.29532 | 95 ft | 14 kts | 25° |
| 2026-05-06 23:24 | 40.63661 | 8.29591 | 98 ft | 23 kts | 21° |
| 2026-05-06 23:24 | 40.63803 | 8.29678 | 99 ft | 22 kts | 25° |
| 2026-05-06 23:25 | 40.63941 | 8.29762 | 100 ft | 22 kts | 24° |
| 2026-05-06 23:25 | 40.64083 | 8.29849 | 99 ft | 24 kts | 24° |
| 2026-05-06 23:25 | 40.64236 | 8.29939 | 96 ft | 23 kts | 24° |
| 2026-05-06 23:25 | 40.64377 | 8.29986 | 96 ft | 19 kts | 343° |
| 2026-05-06 23:26 | 40.64418 | 8.29851 | 94 ft | 18 kts | 249° |
| 2026-05-06 23:26 | 40.64318 | 8.29742 | 95 ft | 24 kts | 205° |
| 2026-05-06 23:26 | 40.63958 | 8.29526 | 98 ft | 91 kts | 204° |
| 2026-05-06 23:26 | 40.63188 | 8.29063 | 98 ft | 149 kts | 205° |
| 2026-05-06 23:27 | 40.62176 | 8.28470 | 482 ft | 165 kts | 204° |
| 2026-05-06 23:27 | 40.61066 | 8.27972 | 1048 ft | 175 kts | 189° |
| 2026-05-06 23:27 | 40.59834 | 8.27733 | 1622 ft | 188 kts | 190° |
| 2026-05-06 23:27 | 40.58453 | 8.27388 | 1994 ft | 211 kts | 191° |
| 2026-05-06 23:28 | 40.56987 | 8.27016 | 2551 ft | 217 kts | 191° |
| 2026-05-06 23:28 | 40.55492 | 8.26641 | 3210 ft | 221 kts | 191° |
| 2026-05-06 23:28 | 40.53964 | 8.26260 | 3943 ft | 225 kts | 191° |
| 2026-05-06 23:28 | 40.52410 | 8.25875 | 4670 ft | 230 kts | 191° |
| 2026-05-06 23:29 | 40.50834 | 8.25480 | 5416 ft | 232 kts | 191° |
| 2026-05-06 23:29 | 40.49236 | 8.25276 | 6215 ft | 233 kts | 171° |
| 2026-05-06 23:29 | 40.47784 | 8.26180 | 6886 ft | 239 kts | 136° |
| 2026-05-06 23:29 | 40.46900 | 8.28124 | 7134 ft | 265 kts | 104° |
| 2026-05-06 23:30 | 40.46541 | 8.30594 | 7521 ft | 283 kts | 100° |
| 2026-05-06 23:30 | 40.46201 | 8.33174 | 8198 ft | 290 kts | 101° |
| 2026-05-06 23:30 | 40.45836 | 8.35794 | 8984 ft | 293 kts | 102° |
| 2026-05-06 23:30 | 40.45454 | 8.38436 | 9767 ft | 297 kts | 103° |
| 2026-05-06 23:31 | 40.45131 | 8.41144 | 10356 ft | 309 kts | 94° |
| 2026-05-06 23:31 | 40.45628 | 8.43998 | 10556 ft | 337 kts | 62° |
| 2026-05-06 23:31 | 40.46953 | 8.46598 | 11045 ft | 348 kts | 54° |
| 2026-05-06 23:31 | 40.48376 | 8.49211 | 11666 ft | 355 kts | 55° |
| 2026-05-06 23:32 | 40.49795 | 8.51884 | 12392 ft | 358 kts | 56° |
| 2026-05-06 23:32 | 40.51208 | 8.54595 | 13173 ft | 362 kts | 56° |
| 2026-05-06 23:32 | 40.52628 | 8.57351 | 13916 ft | 367 kts | 56° |
| 2026-05-06 23:32 | 40.54066 | 8.60147 | 14584 ft | 372 kts | 56° |
| 2026-05-06 23:33 | 40.55523 | 8.62980 | 15291 ft | 376 kts | 56° |
| 2026-05-06 23:33 | 40.56995 | 8.65840 | 15986 ft | 380 kts | 54° |
| 2026-05-06 23:33 | 40.58788 | 8.68400 | 16649 ft | 384 kts | 33° |
| 2026-05-06 23:33 | 40.61078 | 8.70216 | 17373 ft | 386 kts | 27° |
| 2026-05-06 23:34 | 40.63442 | 8.71926 | 18049 ft | 390 kts | 26° |
| 2026-05-06 23:34 | 40.65841 | 8.73650 | 18676 ft | 395 kts | 26° |
| 2026-05-06 23:34 | 40.68257 | 8.75408 | 19272 ft | 399 kts | 26° |
| 2026-05-06 23:34 | 40.70694 | 8.77206 | 19853 ft | 404 kts | 26° |
| 2026-05-06 23:35 | 40.73151 | 8.79038 | 20420 ft | 408 kts | 26° |
| 2026-05-06 23:35 | 40.75635 | 8.80896 | 20990 ft | 413 kts | 26° |
| 2026-05-06 23:35 | 40.78112 | 8.82751 | 21544 ft | 417 kts | 26° |
| 2026-05-06 23:35 | 40.80589 | 8.84791 | 22083 ft | 425 kts | 38° |
| 2026-05-06 23:36 | 40.82582 | 8.87780 | 22620 ft | 433 kts | 59° |
| 2026-05-06 23:36 | 40.83850 | 8.91330 | 23202 ft | 435 kts | 68° |
| 2026-05-06 23:36 | 40.84985 | 8.95061 | 23683 ft | 440 kts | 69° |
| 2026-05-06 23:36 | 40.86110 | 8.98850 | 24099 ft | 445 kts | 69° |
| 2026-05-06 23:37 | 40.87249 | 9.02663 | 24590 ft | 448 kts | 69° |
| 2026-05-06 23:37 | 40.88409 | 9.06487 | 25077 ft | 450 kts | 68° |
| 2026-05-06 23:37 | 40.89588 | 9.10332 | 25515 ft | 453 kts | 68° |
| 2026-05-06 23:37 | 40.90780 | 9.14195 | 25987 ft | 455 kts | 68° |
| 2026-05-06 23:38 | 40.91977 | 9.18070 | 26455 ft | 457 kts | 68° |
| 2026-05-06 23:38 | 40.93183 | 9.21976 | 26888 ft | 460 kts | 68° |
| 2026-05-06 23:38 | 40.94394 | 9.25907 | 27308 ft | 463 kts | 68° |
| 2026-05-06 23:38 | 40.95606 | 9.29861 | 27719 ft | 466 kts | 68° |
| 2026-05-06 23:39 | 40.96826 | 9.33849 | 28145 ft | 468 kts | 68° |
| 2026-05-06 23:39 | 40.98047 | 9.37852 | 28509 ft | 473 kts | 68° |
| 2026-05-06 23:39 | 40.99282 | 9.41913 | 28835 ft | 477 kts | 68° |
| 2026-05-06 23:39 | 41.00524 | 9.46000 | 29218 ft | 479 kts | 68° |
| 2026-05-06 23:40 | 41.01766 | 9.50098 | 29653 ft | 480 kts | 69° |
| 2026-05-06 23:40 | 41.03005 | 9.54191 | 30168 ft | 478 kts | 69° |
| 2026-05-06 23:40 | 41.04238 | 9.58272 | 30648 ft | 476 kts | 69° |
| 2026-05-06 23:40 | 41.05464 | 9.62334 | 31119 ft | 474 kts | 69° |
| 2026-05-06 23:41 | 41.06683 | 9.66381 | 31562 ft | 473 kts | 69° |
| 2026-05-06 23:41 | 41.07901 | 9.70428 | 31987 ft | 472 kts | 69° |
| 2026-05-06 23:41 | 41.09114 | 9.74461 | 32422 ft | 470 kts | 69° |
| 2026-05-06 23:41 | 41.10415 | 9.78424 | 32854 ft | 469 kts | 62° |
| 2026-05-06 23:42 | 41.12033 | 9.82170 | 33279 ft | 467 kts | 58° |
| 2026-05-06 23:42 | 41.13735 | 9.85823 | 33729 ft | 464 kts | 57° |
| 2026-05-06 23:42 | 41.15457 | 9.89441 | 34000 ft | 466 kts | 57° |
| 2026-05-06 23:43 | 41.18935 | 9.96794 | 33981 ft | 471 kts | 57° |
| 2026-05-06 23:43 | 41.22332 | 10.04138 | 33967 ft | 463 kts | 58° |
| 2026-05-06 23:44 | 41.25672 | 10.11448 | 33987 ft | 463 kts | 58° |
| 2026-05-06 23:44 | 41.29012 | 10.18791 | 33986 ft | 465 kts | 58° |
| 2026-05-06 23:45 | 41.32334 | 10.26107 | 33999 ft | 465 kts | 58° |
| 2026-05-06 23:45 | 41.35680 | 10.33492 | 33989 ft | 466 kts | 58° |
| 2026-05-06 23:46 | 41.39028 | 10.40897 | 33982 ft | 467 kts | 58° |
| 2026-05-06 23:46 | 41.42371 | 10.48310 | 33988 ft | 467 kts | 58° |
| 2026-05-06 23:47 | 41.45713 | 10.55739 | 33982 ft | 467 kts | 59° |
| 2026-05-06 23:47 | 41.49046 | 10.63166 | 33981 ft | 466 kts | 59° |
| 2026-05-06 23:48 | 41.52370 | 10.70595 | 33984 ft | 466 kts | 59° |
| 2026-05-06 23:48 | 41.55689 | 10.78031 | 33988 ft | 466 kts | 59° |
| 2026-05-06 23:49 | 41.59002 | 10.85470 | 33989 ft | 466 kts | 59° |
| 2026-05-06 23:49 | 41.62308 | 10.92911 | 33986 ft | 466 kts | 59° |
| 2026-05-06 23:50 | 41.65612 | 11.00362 | 33980 ft | 466 kts | 59° |
| 2026-05-06 23:50 | 41.70561 | 11.11560 | 33995 ft | 467 kts | 59° |
| 2026-05-06 23:51 | 41.73836 | 11.19000 | 33987 ft | 467 kts | 59° |
| 2026-05-06 23:51 | 41.77137 | 11.26514 | 33990 ft | 468 kts | 60° |
| 2026-05-06 23:52 | 41.80787 | 11.33716 | 33994 ft | 468 kts | 46° |
| 2026-05-06 23:52 | 41.85747 | 11.39296 | 34024 ft | 465 kts | 32° |
| 2026-05-06 23:53 | 41.91120 | 11.44170 | 33999 ft | 467 kts | 31° |
| 2026-05-06 23:53 | 41.96507 | 11.49058 | 33995 ft | 468 kts | 32° |
| 2026-05-06 23:54 | 42.01882 | 11.54017 | 33993 ft | 469 kts | 32° |
| 2026-05-06 23:54 | 42.07248 | 11.59016 | 33998 ft | 470 kts | 32° |
| 2026-05-06 23:55 | 42.12619 | 11.64038 | 34002 ft | 470 kts | 32° |
| 2026-05-06 23:55 | 42.17991 | 11.69070 | 33977 ft | 470 kts | 33° |
| 2026-05-06 23:56 | 42.23351 | 11.74100 | 33995 ft | 469 kts | 33° |
| 2026-05-06 23:56 | 42.28708 | 11.79137 | 34009 ft | 469 kts | 33° |
| 2026-05-06 23:57 | 42.34054 | 11.84175 | 34006 ft | 468 kts | 33° |
| 2026-05-06 23:57 | 42.39392 | 11.89214 | 34008 ft | 468 kts | 33° |
| 2026-05-06 23:58 | 42.44723 | 11.94257 | 34021 ft | 467 kts | 33° |
| 2026-05-06 23:58 | 42.50047 | 11.99306 | 34011 ft | 467 kts | 33° |
| 2026-05-06 23:59 | 42.55370 | 12.04363 | 33991 ft | 467 kts | 33° |
| 2026-05-06 23:59 | 42.60683 | 12.09421 | 34029 ft | 467 kts | 33° |
| 2026-05-07 00:00 | 42.66008 | 12.14500 | 34018 ft | 468 kts | 33° |
| 2026-05-07 00:00 | 42.70438 | 12.18734 | 34014 ft | 469 kts | 33° |
| 2026-05-07 00:01 | 42.76654 | 12.24688 | 34013 ft | 471 kts | 33° |
| 2026-05-07 00:01 | 42.82024 | 12.29848 | 34009 ft | 473 kts | 33° |
| 2026-05-07 00:02 | 42.87408 | 12.35031 | 34017 ft | 474 kts | 33° |
| 2026-05-07 00:02 | 42.92799 | 12.40232 | 34002 ft | 475 kts | 33° |
| 2026-05-07 00:03 | 42.98185 | 12.45437 | 34005 ft | 475 kts | 34° |
| 2026-05-07 00:03 | 43.03578 | 12.50663 | 33995 ft | 475 kts | 33° |
| 2026-05-07 00:04 | 43.08961 | 12.55889 | 33995 ft | 474 kts | 34° |
| 2026-05-07 00:04 | 43.13428 | 12.60235 | 34026 ft | 474 kts | 34° |
| 2026-05-07 00:05 | 43.18796 | 12.65469 | 34004 ft | 473 kts | 33° |
| 2026-05-07 00:05 | 43.24150 | 12.70700 | 33997 ft | 472 kts | 34° |
| 2026-05-07 00:06 | 43.29485 | 12.75924 | 33990 ft | 470 kts | 33° |
| 2026-05-07 00:06 | 43.34803 | 12.81143 | 33976 ft | 469 kts | 34° |
| 2026-05-07 00:07 | 43.40103 | 12.86357 | 33992 ft | 469 kts | 34° |
| 2026-05-07 00:07 | 43.45417 | 12.91592 | 33995 ft | 471 kts | 34° |
| 2026-05-07 00:08 | 43.50744 | 12.96853 | 34000 ft | 473 kts | 34° |
| 2026-05-07 00:08 | 43.56100 | 13.02157 | 33986 ft | 475 kts | 34° |
| 2026-05-07 00:09 | 43.61473 | 13.07489 | 33981 ft | 477 kts | 34° |
| 2026-05-07 00:09 | 43.66863 | 13.12845 | 34007 ft | 478 kts | 34° |
| 2026-05-07 00:10 | 43.72260 | 13.18224 | 33962 ft | 478 kts | 35° |
| 2026-05-07 00:10 | 43.77617 | 13.23576 | 33970 ft | 478 kts | 35° |
| 2026-05-07 00:11 | 43.83035 | 13.29000 | 33968 ft | 477 kts | 35° |
| 2026-05-07 00:11 | 43.88406 | 13.34393 | 33974 ft | 476 kts | 35° |
| 2026-05-07 00:12 | 43.93727 | 13.39745 | 33967 ft | 475 kts | 35° |
| 2026-05-07 00:12 | 43.99059 | 13.45121 | 33971 ft | 473 kts | 36° |
| 2026-05-07 00:13 | 44.04375 | 13.50493 | 33938 ft | 472 kts | 35° |
| 2026-05-07 00:13 | 44.09672 | 13.55859 | 33967 ft | 471 kts | 34° |
| 2026-05-07 00:14 | 44.14967 | 13.61234 | 33973 ft | 471 kts | 34° |
| 2026-05-07 00:14 | 44.20286 | 13.66565 | 33979 ft | 471 kts | 30° |
| 2026-05-07 00:15 | 44.26228 | 13.70210 | 33970 ft | 465 kts | 11° |
| 2026-05-07 00:15 | 44.32516 | 13.72371 | 33967 ft | 465 kts | 10° |
| 2026-05-07 00:16 | 44.38817 | 13.74468 | 33975 ft | 466 kts | 10° |
| 2026-05-07 00:16 | 44.45126 | 13.76637 | 33962 ft | 467 kts | 11° |
| 2026-05-07 00:17 | 44.51436 | 13.78854 | 33963 ft | 468 kts | 11° |
| 2026-05-07 00:17 | 44.57752 | 13.81090 | 33968 ft | 468 kts | 11° |
| 2026-05-07 00:18 | 44.64074 | 13.83332 | 33965 ft | 469 kts | 11° |
| 2026-05-07 00:18 | 44.70393 | 13.85577 | 33967 ft | 468 kts | 11° |
| 2026-05-07 00:19 | 44.76716 | 13.87825 | 33968 ft | 468 kts | 11° |
| 2026-05-07 00:19 | 44.83028 | 13.90075 | 33968 ft | 468 kts | 11° |
| 2026-05-07 00:20 | 44.89337 | 13.92329 | 33967 ft | 467 kts | 12° |
| 2026-05-07 00:20 | 44.95642 | 13.94588 | 33973 ft | 468 kts | 12° |
| 2026-05-07 00:21 | 45.01896 | 13.96833 | 33969 ft | 467 kts | 11° |
| 2026-05-07 00:21 | 45.08191 | 13.99096 | 33974 ft | 467 kts | 12° |
| 2026-05-07 00:22 | 45.14479 | 14.01364 | 33968 ft | 466 kts | 12° |
| 2026-05-07 00:22 | 45.20762 | 14.03636 | 33979 ft | 466 kts | 12° |
| 2026-05-07 00:23 | 45.27050 | 14.05913 | 33981 ft | 466 kts | 12° |
| 2026-05-07 00:23 | 45.33338 | 14.08197 | 33989 ft | 467 kts | 12° |
| 2026-05-07 00:24 | 45.39630 | 14.10488 | 33983 ft | 467 kts | 12° |
| 2026-05-07 00:24 | 45.45904 | 14.12896 | 33968 ft | 468 kts | 18° |
| 2026-05-07 00:25 | 45.51630 | 14.17254 | 33985 ft | 467 kts | 36° |
| 2026-05-07 00:25 | 45.56866 | 14.22716 | 33970 ft | 466 kts | 37° |
| 2026-05-07 00:26 | 45.62081 | 14.28193 | 33966 ft | 465 kts | 37° |
| 2026-05-07 00:26 | 45.67318 | 14.33617 | 33982 ft | 465 kts | 36° |
| 2026-05-07 00:27 | 45.72571 | 14.39033 | 33966 ft | 466 kts | 36° |
| 2026-05-07 00:27 | 45.77824 | 14.44458 | 33967 ft | 466 kts | 36° |
| 2026-05-07 00:28 | 45.83051 | 14.49873 | 33949 ft | 467 kts | 36° |
| 2026-05-07 00:28 | 45.88318 | 14.55345 | 33954 ft | 468 kts | 36° |
| 2026-05-07 00:29 | 45.93589 | 14.60833 | 33956 ft | 468 kts | 36° |
| 2026-05-07 00:30 | 46.04573 | 14.70857 | 33953 ft | 468 kts | 28° |
| 2026-05-07 00:30 | 46.10272 | 14.75414 | 33954 ft | 469 kts | 28° |
| 2026-05-07 00:31 | 46.15946 | 14.80047 | 33954 ft | 469 kts | 29° |
| 2026-05-07 00:31 | 46.21602 | 14.84736 | 33968 ft | 469 kts | 28° |
| 2026-05-07 00:32 | 46.27251 | 14.89441 | 33944 ft | 468 kts | 28° |
| 2026-05-07 00:32 | 46.32882 | 14.94141 | 33933 ft | 466 kts | 28° |
| 2026-05-07 00:33 | 46.38487 | 14.98829 | 33936 ft | 465 kts | 28° |
| 2026-05-07 00:33 | 46.44080 | 15.03517 | 33910 ft | 464 kts | 28° |
| 2026-05-07 00:34 | 46.49622 | 15.08174 | 33931 ft | 463 kts | 28° |
| 2026-05-07 00:34 | 46.55189 | 15.12863 | 33934 ft | 463 kts | 28° |
| 2026-05-07 00:35 | 46.60759 | 15.17562 | 33939 ft | 463 kts | 28° |
| 2026-05-07 00:35 | 46.66267 | 15.22440 | 33917 ft | 465 kts | 34° |
| 2026-05-07 00:36 | 46.71402 | 15.28185 | 33915 ft | 466 kts | 37° |
| 2026-05-07 00:36 | 46.76472 | 15.34088 | 33913 ft | 467 kts | 37° |
| 2026-05-07 00:37 | 46.81575 | 15.39955 | 33794 ft | 465 kts | 36° |
| 2026-05-07 00:37 | 46.84115 | 15.42850 | 33459 ft | 460 kts | 36° |
| 2026-05-07 00:37 | 46.86624 | 15.45705 | 33100 ft | 455 kts | 36° |
| 2026-05-07 00:38 | 46.89111 | 15.48534 | 32759 ft | 451 kts | 36° |
| 2026-05-07 00:38 | 46.91581 | 15.51346 | 32382 ft | 448 kts | 36° |
| 2026-05-07 00:38 | 46.94033 | 15.54142 | 32019 ft | 445 kts | 36° |
| 2026-05-07 00:38 | 46.96466 | 15.56919 | 31662 ft | 443 kts | 36° |
| 2026-05-07 00:39 | 46.98887 | 15.59686 | 31299 ft | 440 kts | 36° |
| 2026-05-07 00:39 | 47.01293 | 15.62438 | 30950 ft | 438 kts | 36° |
| 2026-05-07 00:39 | 47.03687 | 15.65183 | 30595 ft | 436 kts | 36° |
| 2026-05-07 00:39 | 47.06065 | 15.67913 | 30247 ft | 434 kts | 36° |
| 2026-05-07 00:40 | 47.08436 | 15.70637 | 29878 ft | 432 kts | 36° |
| 2026-05-07 00:40 | 47.10792 | 15.73347 | 29473 ft | 429 kts | 36° |
| 2026-05-07 00:40 | 47.13132 | 15.76042 | 29083 ft | 426 kts | 37° |
| 2026-05-07 00:40 | 47.15451 | 15.78718 | 28734 ft | 422 kts | 37° |
| 2026-05-07 00:41 | 47.17754 | 15.81377 | 28354 ft | 419 kts | 37° |
| 2026-05-07 00:41 | 47.20037 | 15.84016 | 28004 ft | 416 kts | 37° |
| 2026-05-07 00:41 | 47.22306 | 15.86641 | 27639 ft | 413 kts | 37° |
| 2026-05-07 00:41 | 47.24557 | 15.89248 | 27277 ft | 411 kts | 37° |
| 2026-05-07 00:42 | 47.26796 | 15.91845 | 26906 ft | 408 kts | 37° |
| 2026-05-07 00:42 | 47.29015 | 15.94422 | 26584 ft | 405 kts | 37° |
| 2026-05-07 00:42 | 47.31189 | 15.96947 | 26226 ft | 402 kts | 37° |
| 2026-05-07 00:42 | 47.33380 | 15.99495 | 25896 ft | 400 kts | 37° |
| 2026-05-07 00:43 | 47.35576 | 16.02080 | 25542 ft | 398 kts | 41° |
| 2026-05-07 00:43 | 47.37505 | 16.04981 | 25189 ft | 396 kts | 52° |
| 2026-05-07 00:43 | 47.39075 | 16.08287 | 24862 ft | 392 kts | 59° |
| 2026-05-07 00:43 | 47.40540 | 16.11670 | 24518 ft | 391 kts | 59° |
| 2026-05-07 00:44 | 47.41984 | 16.15060 | 24176 ft | 389 kts | 60° |
| 2026-05-07 00:44 | 47.43401 | 16.18389 | 23846 ft | 388 kts | 59° |
| 2026-05-07 00:44 | 47.44840 | 16.21754 | 23495 ft | 387 kts | 59° |
| 2026-05-07 00:44 | 47.46278 | 16.25100 | 23105 ft | 385 kts | 59° |
| 2026-05-07 00:45 | 47.47715 | 16.28432 | 22726 ft | 383 kts | 59° |
| 2026-05-07 00:45 | 47.49145 | 16.31741 | 22391 ft | 380 kts | 59° |
| 2026-05-07 00:45 | 47.50564 | 16.35026 | 22041 ft | 378 kts | 59° |
| 2026-05-07 00:45 | 47.51975 | 16.38294 | 21697 ft | 376 kts | 59° |
| 2026-05-07 00:46 | 47.53374 | 16.41537 | 21367 ft | 373 kts | 59° |
| 2026-05-07 00:46 | 47.54765 | 16.44764 | 21031 ft | 370 kts | 59° |
| 2026-05-07 00:46 | 47.56144 | 16.47969 | 20698 ft | 368 kts | 59° |
| 2026-05-07 00:46 | 47.57514 | 16.51157 | 20371 ft | 366 kts | 59° |
| 2026-05-07 00:47 | 47.58876 | 16.54329 | 20049 ft | 364 kts | 59° |
| 2026-05-07 00:47 | 47.60226 | 16.57478 | 19729 ft | 361 kts | 59° |
| 2026-05-07 00:47 | 47.61570 | 16.60617 | 19396 ft | 359 kts | 59° |
| 2026-05-07 00:47 | 47.62906 | 16.63739 | 19079 ft | 358 kts | 59° |
| 2026-05-07 00:48 | 47.64234 | 16.66846 | 18771 ft | 356 kts | 59° |
| 2026-05-07 00:48 | 47.65557 | 16.69947 | 18451 ft | 355 kts | 59° |
| 2026-05-07 00:48 | 47.66872 | 16.73033 | 18127 ft | 353 kts | 59° |
| 2026-05-07 00:48 | 47.68182 | 16.76111 | 17767 ft | 352 kts | 59° |
| 2026-05-07 00:49 | 47.69484 | 16.79171 | 17424 ft | 350 kts | 59° |
| 2026-05-07 00:49 | 47.70759 | 16.82172 | 17100 ft | 348 kts | 59° |
| 2026-05-07 00:49 | 47.72043 | 16.85198 | 16781 ft | 345 kts | 59° |
| 2026-05-07 00:49 | 47.73320 | 16.88209 | 16469 ft | 343 kts | 59° |
| 2026-05-07 00:50 | 47.74586 | 16.91199 | 16154 ft | 341 kts | 59° |
| 2026-05-07 00:50 | 47.75842 | 16.94169 | 15846 ft | 338 kts | 59° |
| 2026-05-07 00:50 | 47.77088 | 16.97121 | 15536 ft | 336 kts | 59° |
| 2026-05-07 00:50 | 47.78329 | 17.00059 | 15232 ft | 334 kts | 59° |
| 2026-05-07 00:51 | 47.79561 | 17.02982 | 14926 ft | 333 kts | 59° |
| 2026-05-07 00:51 | 47.80786 | 17.05890 | 14620 ft | 331 kts | 59° |
| 2026-05-07 00:51 | 47.82005 | 17.08786 | 14313 ft | 330 kts | 59° |
| 2026-05-07 00:51 | 47.83191 | 17.11693 | 14004 ft | 327 kts | 64° |
| 2026-05-07 00:52 | 47.84075 | 17.14787 | 13748 ft | 324 kts | 72° |
| 2026-05-07 00:52 | 47.84802 | 17.17961 | 13498 ft | 324 kts | 74° |
| 2026-05-07 00:52 | 47.85507 | 17.21147 | 13250 ft | 324 kts | 74° |
| 2026-05-07 00:52 | 47.86225 | 17.24330 | 12981 ft | 324 kts | 73° |
| 2026-05-07 00:53 | 47.86953 | 17.27493 | 12715 ft | 323 kts | 73° |
| 2026-05-07 00:53 | 47.87688 | 17.30628 | 12494 ft | 318 kts | 72° |
| 2026-05-07 00:53 | 47.88421 | 17.33727 | 12200 ft | 316 kts | 72° |
| 2026-05-07 00:53 | 47.89150 | 17.36807 | 11892 ft | 315 kts | 72° |
| 2026-05-07 00:54 | 47.89879 | 17.39884 | 11568 ft | 314 kts | 72° |
| 2026-05-07 00:54 | 47.90919 | 17.42734 | 11220 ft | 316 kts | 47° |
| 2026-05-07 00:54 | 47.92014 | 17.44147 | 10889 ft | 318 kts | 31° |
| 2026-05-07 00:54 | 47.94054 | 17.45433 | 10438 ft | 318 kts | 15° |
| 2026-05-07 00:55 | 47.96890 | 17.46734 | 10002 ft | 317 kts | 14° |
| 2026-05-07 00:55 | 47.98281 | 17.47362 | 9897 ft | 312 kts | 14° |
| 2026-05-07 00:55 | 48.00338 | 17.48298 | 9794 ft | 303 kts | 14° |
| 2026-05-07 00:55 | 48.02990 | 17.49526 | 9491 ft | 298 kts | 14° |
| 2026-05-07 00:56 | 48.04950 | 17.50444 | 9308 ft | 293 kts | 14° |
| 2026-05-07 00:56 | 48.06869 | 17.51346 | 9172 ft | 285 kts | 14° |
| 2026-05-07 00:56 | 48.08742 | 17.52226 | 9013 ft | 279 kts | 13° |
| 2026-05-07 00:56 | 48.10008 | 17.52723 | 8822 ft | 278 kts | 10° |
| 2026-05-07 00:57 | 48.11890 | 17.53348 | 8556 ft | 277 kts | 9° |
| 2026-05-07 00:57 | 48.13772 | 17.53950 | 8308 ft | 276 kts | 9° |
| 2026-05-07 00:57 | 48.15641 | 17.54556 | 8043 ft | 274 kts | 9° |
| 2026-05-07 00:57 | 48.17503 | 17.55164 | 7784 ft | 273 kts | 9° |
| 2026-05-07 00:58 | 48.19355 | 17.55778 | 7521 ft | 272 kts | 9° |
| 2026-05-07 00:58 | 48.21176 | 17.56388 | 7274 ft | 271 kts | 9° |
| 2026-05-07 00:58 | 48.23038 | 17.57012 | 7016 ft | 270 kts | 9° |
| 2026-05-07 00:58 | 48.24843 | 17.57620 | 6768 ft | 269 kts | 9° |
| 2026-05-07 00:59 | 48.28484 | 17.58847 | 6270 ft | 267 kts | 9° |
| 2026-05-07 00:59 | 48.30299 | 17.59399 | 5992 ft | 265 kts | 1° |
| 2026-05-07 00:59 | 48.32049 | 17.58928 | 5731 ft | 253 kts | 329° |
| 2026-05-07 01:00 | 48.33446 | 17.57414 | 5495 ft | 246 kts | 313° |
| 2026-05-07 01:00 | 48.34634 | 17.55624 | 5374 ft | 235 kts | 310° |
| 2026-05-07 01:00 | 48.35692 | 17.53860 | 5264 ft | 219 kts | 300° |
| 2026-05-07 01:00 | 48.36165 | 17.51819 | 5188 ft | 199 kts | 273° |
| 2026-05-07 01:01 | 48.36029 | 17.49844 | 5101 ft | 183 kts | 252° |
| 2026-05-07 01:01 | 48.35363 | 17.48324 | 5119 ft | 174 kts | 235° |
| 2026-05-07 01:01 | 48.34593 | 17.46898 | 4909 ft | 175 kts | 233° |
| 2026-05-07 01:01 | 48.33777 | 17.45545 | 4689 ft | 173 kts | 231° |
| 2026-05-07 01:02 | 48.32941 | 17.44272 | 4456 ft | 169 kts | 230° |
| 2026-05-07 01:02 | 48.32112 | 17.43054 | 4236 ft | 165 kts | 230° |
| 2026-05-07 01:02 | 48.31283 | 17.41852 | 4027 ft | 166 kts | 230° |
| 2026-05-07 01:02 | 48.30443 | 17.40638 | 3811 ft | 169 kts | 231° |
| 2026-05-07 01:03 | 48.29593 | 17.39413 | 3579 ft | 169 kts | 231° |
| 2026-05-07 01:03 | 48.28742 | 17.38189 | 3364 ft | 169 kts | 231° |
| 2026-05-07 01:03 | 48.27895 | 17.36971 | 3138 ft | 168 kts | 232° |
| 2026-05-07 01:03 | 48.27061 | 17.35771 | 2907 ft | 164 kts | 232° |
| 2026-05-07 01:04 | 48.26244 | 17.34594 | 2701 ft | 162 kts | 232° |
| 2026-05-07 01:04 | 48.25447 | 17.33447 | 2493 ft | 153 kts | 232° |
| 2026-05-07 01:04 | 48.24706 | 17.32382 | 2328 ft | 141 kts | 232° |
| 2026-05-07 01:04 | 48.24021 | 17.31393 | 2110 ft | 133 kts | 231° |
| 2026-05-07 01:05 | 48.23364 | 17.30442 | 1936 ft | 131 kts | 230° |
| 2026-05-07 01:05 | 48.22697 | 17.29479 | 1760 ft | 134 kts | 230° |
| 2026-05-07 01:05 | 48.22026 | 17.28512 | 1567 ft | 132 kts | 229° |
| 2026-05-07 01:05 | 48.21359 | 17.27549 | 1409 ft | 137 kts | 229° |
| 2026-05-07 01:06 | 48.20645 | 17.26519 | 1205 ft | 145 kts | 227° |
| 2026-05-07 01:06 | 48.19918 | 17.25471 | 1004 ft | 146 kts | 225° |
| 2026-05-07 01:06 | 48.19203 | 17.24418 | 791 ft | 140 kts | 222° |
| 2026-05-07 01:06 | 48.18493 | 17.23416 | 638 ft | 140 kts | 221° |
| 2026-05-07 01:07 | 48.17784 | 17.22399 | 450 ft | 141 kts | 222° |
| 2026-05-07 01:07 | 48.17166 | 17.21507 | 427 ft | 96 kts | 225° |
| 2026-05-07 01:07 | 48.16875 | 17.21090 | 427 ft | 26 kts | 223° |
| 2026-05-07 01:07 | 48.16752 | 17.20910 | 422 ft | 24 kts | 223° |
| 2026-05-07 01:08 | 48.16636 | 17.20746 | 432 ft | 19 kts | 223° |
| 2026-05-07 01:08 | 48.16569 | 17.20637 | 425 ft | 11 kts | 244° |
| 2026-05-07 01:08 | 48.16600 | 17.20537 | 426 ft | 11 kts | 314° |
| 2026-05-07 01:08 | 48.16649 | 17.20449 | 429 ft | 11 kts | 313° |
| 2026-05-07 01:09 | 48.16706 | 17.20366 | 428 ft | 12 kts | 316° |
| 2026-05-07 01:09 | 48.16763 | 17.20285 | 426 ft | 11 kts | 317° |
| 2026-05-07 01:09 | 48.16819 | 17.20205 | 427 ft | 11 kts | 316° |
| 2026-05-07 01:09 | 48.16873 | 17.20156 | 427 ft | 9 kts | 11° |
| 2026-05-07 01:10 | 48.16917 | 17.20212 | 431 ft | 7 kts | 43° |
| 2026-05-07 01:10 | 48.16950 | 17.20259 | 424 ft | 5 kts | 43° |
| 2026-05-07 01:10 | 48.16980 | 17.20251 | 431 ft | 5 kts | 317° |
| 2026-05-07 01:10 | 48.17001 | 17.20218 | 424 ft | 3 kts | 314° |
| 2026-05-07 01:11 | 48.17005 | 17.20213 | 430 ft | 0 kts | 314° |